Latest Weather Observations for Banana Bank

IDQ60801

Issued at 9:02 pm EST Friday 22 May 2015 (issued every 30 minutes, with the page automatically refreshed every 10 minutes)

About weather observations | Map of weather stations | Latest weather observations for QLD | Other Formats
Station Details ID: 040925 Name: BANANA BANK NORTH BEACON Lat: -27.53 Lon: 153.33 Height: 7.0 m
Data from the previous 72 hours. | See also: Recent months for locations in Queensland
Date/Time
EST
Temp
°C
App
Temp
°C
Dew
Point
Rel
Hum
%
Delta-T
°C
Wind Press
QNH
hPa
Press
MSL
hPa
Rain
since 9 am
mm
Dir
 
Spd
km/h
Gust
km/h
Spd
kts
Gust
kts
22/09:00pm - - - - - W 28 35 15 19 - - -
22/08:30pm - - - - - WSW 26 39 14 21 - - -
22/08:00pm - - - - - WSW 20 30 11 16 - - -
22/07:30pm - - - - - WSW 20 28 11 15 - - -
22/07:00pm - - - - - WSW 19 26 10 14 - - -
22/06:30pm - - - - - WSW 22 32 12 17 - - -
22/06:00pm - - - - - W 22 28 12 15 - - -
22/05:30pm - - - - - WSW 17 24 9 13 - - -
22/05:00pm - - - - - WSW 30 39 16 21 - - -
22/04:30pm - - - - - WSW 26 41 14 22 - - -
22/04:00pm - - - - - WSW 24 39 13 21 - - -
22/03:30pm - - - - - WSW 24 44 13 24 - - -
22/03:00pm - - - - - WSW 33 52 18 28 - - -
22/02:56pm - - - - - WSW 30 50 16 27 - - -
22/02:30pm - - - - - W 32 43 17 23 - - -
22/02:00pm - - - - - W 37 46 20 25 - - -
22/01:30pm - - - - - W 35 46 19 25 - - -
22/01:00pm - - - - - W 33 48 18 26 - - -
22/12:36pm - - - - - W 28 46 15 25 - - -
22/12:30pm - - - - - W 37 46 20 25 - - -
22/12:00pm - - - - - W 28 43 15 23 - - -
22/11:30am - - - - - W 32 41 17 22 - - -
22/11:00am - - - - - WNW 30 39 16 21 - - -
22/10:30am - - - - - W 22 30 12 16 - - -
22/10:00am - - - - - W 30 39 16 21 - - -
22/09:30am - - - - - W 33 41 18 22 - - -
22/09:00am - - - - - W 35 43 19 23 - - -
22/08:30am - - - - - WNW 20 26 11 14 - - -
22/08:00am - - - - - WNW 15 19 8 10 - - -
22/07:30am - - - - - W 17 19 9 10 - - -
22/07:00am - - - - - W 20 26 11 14 - - -
22/06:30am - - - - - WSW 22 28 12 15 - - -
22/06:00am - - - - - WSW 15 22 8 12 - - -
22/05:30am - - - - - WSW 15 22 8 12 - - -
22/05:00am - - - - - WSW 13 20 7 11 - - -
22/04:30am - - - - - W 11 20 6 11 - - -
22/04:00am - - - - - WNW 13 15 7 8 - - -
22/03:30am - - - - - W 15 20 8 11 - - -
22/03:00am - - - - - WNW 17 19 9 10 - - -
22/02:30am - - - - - WNW 19 22 10 12 - - -
22/02:00am - - - - - WNW 15 17 8 9 - - -
22/01:30am - - - - - WNW 19 24 10 13 - - -
22/01:00am - - - - - NW 19 22 10 12 - - -
22/12:30am - - - - - W 22 30 12 16 - - -
22/12:00am - - - - - W 17 22 9 12 - - -
 
Date/Time
EST
Temp
°C
App
Temp
°C
Dew
Point
Rel
Hum
%
Delta-T
°C
Wind Press
QNH
hPa
Press
MSL
hPa
Rain
since 9 am
mm
Dir
 
Spd
km/h
Gust
km/h
Spd
kts
Gust
kts
21/11:30pm - - - - - W 17 20 9 11 - - -
21/11:00pm - - - - - WSW 11 19 6 10 - - -
21/10:30pm - - - - - WSW 19 24 10 13 - - -
21/10:00pm - - - - - WSW 9 13 5 7 - - -
21/09:30pm - - - - - S 7 9 4 5 - - -
21/09:00pm - - - - - S 7 9 4 5 - - -
21/08:30pm - - - - - S 7 9 4 5 - - -
21/08:00pm - - - - - SSE 11 13 6 7 - - -
21/07:30pm - - - - - SSE 11 13 6 7 - - -
21/07:00pm - - - - - SE 13 15 7 8 - - -
21/06:30pm - - - - - SSE 9 13 5 7 - - -
21/06:00pm - - - - - SSW 22 28 12 15 - - -
21/05:30pm - - - - - SW 17 20 9 11 - - -
21/05:00pm - - - - - WSW 7 13 4 7 - - -
21/04:30pm - - - - - W 15 26 8 14 - - -
21/04:00pm - - - - - N 4 6 2 3 - - -
21/03:30pm - - - - - CALM 0 2 0 1 - - -
21/03:00pm - - - - - CALM 0 0 0 0 - - -
21/02:30pm - - - - - WNW 4 7 2 4 - - -
21/02:00pm - - - - - N 7 11 4 6 - - -
21/01:30pm - - - - - N 9 11 5 6 - - -
21/01:00pm - - - - - N 11 13 6 7 - - -
21/12:30pm - - - - - N 13 15 7 8 - - -
21/12:00pm - - - - - N 17 19 9 10 - - -
21/11:30am - - - - - N 13 15 7 8 - - -
21/11:00am - - - - - N 9 13 5 7 - - -
21/10:30am - - - - - NNW 9 9 5 5 - - -
21/10:00am - - - - - N 7 9 4 5 - - -
21/09:30am - - - - - NNW 4 6 2 3 - - -
21/09:00am - - - - - WNW 4 4 2 2 - - -
21/08:30am - - - - - W 4 6 2 3 - - -
21/08:00am - - - - - NW 4 6 2 3 - - -
21/07:30am - - - - - W 7 9 4 5 - - -
21/07:00am - - - - - W 9 11 5 6 - - -
21/06:30am - - - - - WSW 7 13 4 7 - - -
21/06:00am - - - - - NW 9 11 5 6 - - -
21/05:30am - - - - - N 7 9 4 5 - - -
21/05:00am - - - - - NNW 7 9 4 5 - - -
21/04:30am - - - - - NNW 9 11 5 6 - - -
21/04:00am - - - - - NNW 11 13 6 7 - - -
21/03:30am - - - - - N 7 9 4 5 - - -
21/03:00am - - - - - CALM 0 0 0 0 - - -
21/02:30am - - - - - CALM 0 0 0 0 - - -
21/02:00am - - - - - CALM 0 0 0 0 - - -
21/01:30am - - - - - CALM 0 0 0 0 - - -
21/01:00am - - - - - NW 6 6 3 3 - - -
21/12:30am - - - - - NNW 6 6 3 3 - - -
21/12:00am - - - - - N 7 9 4 5 - - -
 
Date/Time
EST
Temp
°C
App
Temp
°C
Dew
Point
Rel
Hum
%
Delta-T
°C
Wind Press
QNH
hPa
Press
MSL
hPa
Rain
since 9 am
mm
Dir
 
Spd
km/h
Gust
km/h
Spd
kts
Gust
kts
20/11:30pm - - - - - N 6 6 3 3 - - -
20/11:00pm - - - - - NNE 6 6 3 3 - - -
20/10:30pm - - - - - NW 7 7 4 4 - - -
20/10:00pm - - - - - NNW 6 7 3 4 - - -
20/09:30pm - - - - - NNW 6 7 3 4 - - -
20/09:00pm - - - - - NW 7 7 4 4 - - -
20/08:30pm - - - - - NNW 9 9 5 5 - - -
20/08:00pm - - - - - NW 11 11 6 6 - - -
20/07:30pm - - - - - N 7 7 4 4 - - -
20/07:00pm - - - - - N 11 13 6 7 - - -
20/06:30pm - - - - - N 13 15 7 8 - - -
20/06:00pm - - - - - NNE 9 11 5 6 - - -
20/05:30pm - - - - - NNE 13 15 7 8 - - -
20/05:00pm - - - - - NNE 13 15 7 8 - - -
20/04:30pm - - - - - NNE 9 13 5 7 - - -
20/04:00pm - - - - - NNE 11 13 6 7 - - -
20/03:30pm - - - - - N 11 15 6 8 - - -
20/03:00pm - - - - - N 9 13 5 7 - - -
20/02:30pm - - - - - N 2 6 1 3 - - -
20/02:00pm - - - - - N 7 9 4 5 - - -
20/01:30pm - - - - - NE 6 7 3 4 - - -
20/01:00pm - - - - - ENE 6 6 3 3 - - -
20/12:30pm - - - - - ENE 7 9 4 5 - - -
20/12:00pm - - - - - ENE 7 7 4 4 - - -
20/11:30am - - - - - ESE 7 7 4 4 - - -
20/11:00am - - - - - SE 7 7 4 4 - - -
20/10:30am - - - - - CALM 0 0 0 0 - - -
20/10:00am - - - - - SW 7 9 4 5 - - -
20/09:30am - - - - - WSW 11 15 6 8 - - -
20/09:00am - - - - - SW 13 17 7 9 - - -
20/08:30am - - - - - WSW 13 19 7 10 - - -
20/08:00am - - - - - WSW 9 13 5 7 - - -
20/07:30am - - - - - WSW 7 9 4 5 - - -
20/07:00am - - - - - W 4 6 2 3 - - -
20/06:30am - - - - - SW 4 6 2 3 - - -
20/06:00am - - - - - WSW 6 7 3 4 - - -
20/05:30am - - - - - SW 7 9 4 5 - - -
20/05:00am - - - - - S 6 7 3 4 - - -
20/04:30am - - - - - ENE 4 4 2 2 - - -
20/04:00am - - - - - SSE 2 4 1 2 - - -
20/03:30am - - - - - SSE 4 6 2 3 - - -
20/03:00am - - - - - S 4 6 2 3 - - -
20/02:30am - - - - - SSW 4 6 2 3 - - -
20/02:00am - - - - - WSW 6 9 3 5 - - -
20/01:30am - - - - - W 7 9 4 5 - - -
20/01:00am - - - - - WNW 2 2 1 1 - - -
20/12:30am - - - - - WNW 4 4 2 2 - - -
20/12:00am - - - - - CALM 0 0 0 0 - - -
 
Date/Time
EST
Temp
°C
App
Temp
°C
Dew
Point
Rel
Hum
%
Delta-T
°C
Wind Press
QNH
hPa
Press
MSL
hPa
Rain
since 9 am
mm
Dir
 
Spd
km/h
Gust
km/h
Spd
kts
Gust
kts
19/11:30pm - - - - - CALM 0 0 0 0 - - -
19/11:00pm - - - - - CALM 0 0 0 0 - - -
19/10:30pm - - - - - CALM 0 4 0 2 - - -
19/10:00pm - - - - - CALM 0 2 0 1 - - -
19/09:30pm - - - - - CALM 0 2 0 1 - - -

Other Formats:

Comma delimited format used in spreadsheet applications
http://www.bom.gov.au/fwo/IDQ60801/IDQ60801.94591.axf

JavaScript Object Notation format (JSON) in row-major order
http://www.bom.gov.au/fwo/IDQ60801/IDQ60801.94591.json